Estación Meteorológica Peña el Pijo (Robertgarden) [ 01/30/23 14:35:24 CET ]

Fecha Hora Presion(HPa) Temp (°C) Humedad % Rocio (°C) Viento ( m/s) Direccion Lluvia 1Hora(mm) Lluvia 24H(mm) LLuvia Total(mm)
2010-Aug-18 01:01:14 1013.000 16.2 81 13.0       6.21 149.18
2010-Aug-18 02:01:13 1012.900 14.1 87 12.0       6.21 149.18
2010-Aug-18 03:01:14 1012.600 13.3 91 11.9       6.21 149.18
2010-Aug-18 04:01:13 1012.700 13.3 91 11.9       6.21 149.18
2010-Aug-18 05:01:13 1011.800 13.0 92 11.7       1.03 149.18
2010-Aug-18 06:01:12 1011.400 12.7 92 11.4         149.18
2010-Aug-18 07:01:13 1011.400 12.5 93 11.4         149.18
2010-Aug-18 08:01:12 1011.400 12.9 94 11.9         149.18
2010-Aug-18 09:01:13 1011.900 17.7 86 15.3         149.18
2010-Aug-18 10:01:14 1011.800 17.4 80 13.9         149.18
2010-Aug-18 11:01:14 1012.100 19.6 78 15.7         149.18
2010-Aug-18 12:01:14 1012.000 20.4 75 15.8         149.18
2010-Aug-18 13:01:13 1011.400 24.9 57 15.8         149.18
2010-Aug-18 14:01:13 1011.000 25.4 54 15.4         149.18
2010-Aug-18 15:01:17 1010.600 25.8 52 15.2         149.18
2010-Aug-18 16:01:16 1009.900 28.8 37 12.6         149.18
2010-Aug-18 17:01:38 1009.400 29.3 35 12.2         149.18
2010-Aug-18 18:01:39 1009.100 29.4 40 14.5         149.18
2010-Aug-18 19:01:39 1008.700 24.9 51 14.1         149.18
2010-Aug-18 20:01:43 1008.800 21.8 61 13.9         149.18
2010-Aug-18 21:01:13 1009.600 20.6 71 15.2         149.18
2010-Aug-18 22:01:14 1010.300 19.7 74 14.9         149.18
2010-Aug-18 23:01:16 1010.600 17.2 84 14.5     1.03 1.03 150.22

Temperatura Máxima:29°    Temperatura Mínima:12°
Presión Máxima:1013.000 Hpa    Presión Mínima:1008.700 Hpa


Volver